createdAt,value
2023-02-24T00:02:02.010Z,74.60
2023-02-24T00:04:34.405Z,74.70
2023-02-24T00:07:01.401Z,74.90
2023-02-24T00:09:30.133Z,75.10
2023-02-24T00:12:10.037Z,75.30
2023-02-24T00:14:38.885Z,75.80
2023-02-24T00:17:09.888Z,76.50
2023-02-24T00:19:37.954Z,76.90
2023-02-24T00:22:06.672Z,76.50
2023-02-24T00:24:34.172Z,76.40
2023-02-24T00:27:07.529Z,77.40
2023-02-24T00:29:37.507Z,78.80
2023-02-24T00:32:07.143Z,80.00
2023-02-24T00:34:36.743Z,80.20
2023-02-24T00:37:06.931Z,80.30
2023-02-24T00:39:34.626Z,79.90
2023-02-24T00:42:06.656Z,80.60
2023-02-24T00:44:39.185Z,80.50
2023-02-24T00:47:08.226Z,80.90
2023-02-24T00:49:36.066Z,83.20
2023-02-24T00:52:06.646Z,83.30
2023-02-24T00:54:36.473Z,82.60
2023-02-24T00:57:03.780Z,83.90
2023-02-24T00:59:30.769Z,83.90
2023-02-24T01:01:57.622Z,83.90
2023-02-24T01:04:24.454Z,84.30
2023-02-24T01:07:00.145Z,84.50
2023-02-24T01:09:30.048Z,84.60
2023-02-24T01:12:16.411Z,85.00
2023-02-24T01:14:46.966Z,85.00
2023-02-24T01:17:14.510Z,84.70
2023-02-24T01:19:41.289Z,85.00
2023-02-24T01:22:10.083Z,85.00
2023-02-24T01:24:41.263Z,85.50
2023-02-24T01:27:09.784Z,84.70
2023-02-24T01:29:39.653Z,83.90
2023-02-24T01:32:07.636Z,84.80
2023-02-24T01:34:35.093Z,85.00
2023-02-24T01:37:02.115Z,86.60
2023-02-24T01:39:28.823Z,87.10
2023-02-24T01:41:55.753Z,87.90
2023-02-24T01:44:24.008Z,87.50
2023-02-24T01:46:54.137Z,88.90
2023-02-24T01:49:39.730Z,88.30
2023-02-24T01:52:20.536Z,88.60
2023-02-24T01:54:47.211Z,88.10
2023-02-24T01:57:19.931Z,87.40
2023-02-24T01:59:50.109Z,87.60
2023-02-24T02:02:19.277Z,87.10
2023-02-24T02:04:59.590Z,86.90
2023-02-24T02:07:28.624Z,86.50
2023-02-24T02:10:00.195Z,85.70
2023-02-24T02:12:28.423Z,86.40
2023-02-24T02:14:58.198Z,86.30
2023-02-24T02:17:55.453Z,86.20
2023-02-24T02:20:45.280Z,86.80
2023-02-24T02:23:14.692Z,87.20
2023-02-24T02:26:06.317Z,86.30
2023-02-24T02:28:45.505Z,86.00
2023-02-24T02:31:46.661Z,86.10
2023-02-24T02:34:19.493Z,85.90
2023-02-24T02:36:58.076Z,85.50
2023-02-24T02:39:48.753Z,84.80
2023-02-24T02:42:35.895Z,84.60
2023-02-24T02:45:19.241Z,84.70
2023-02-24T02:48:06.388Z,83.40
2023-02-24T02:50:46.066Z,81.90
2023-02-24T02:53:23.090Z,81.50
2023-02-24T02:55:53.665Z,82.70
2023-02-24T02:58:26.326Z,82.60
2023-02-24T03:01:02.892Z,82.30
2023-02-24T03:03:41.068Z,83.30
2023-02-24T03:06:26.337Z,82.60
2023-02-24T03:08:59.362Z,82.40
2023-02-24T03:11:26.932Z,82.50
2023-02-24T03:13:57.721Z,82.40
2023-02-24T03:16:26.706Z,82.30
2023-02-24T03:19:00.744Z,81.10
2023-02-24T03:21:33.784Z,80.30
2023-02-24T03:24:02.655Z,80.60
2023-02-24T03:26:32.386Z,80.70
2023-02-24T03:29:24.121Z,81.20
2023-02-24T03:32:09.591Z,81.40
2023-02-24T03:34:58.101Z,81.40
2023-02-24T03:37:29.906Z,81.10
2023-02-24T03:40:01.073Z,81.20
2023-02-24T03:42:32.741Z,82.30
2023-02-24T03:45:00.008Z,83.50
2023-02-24T03:47:26.987Z,83.80
2023-02-24T03:49:53.844Z,83.70
2023-02-24T03:52:41.710Z,83.80
2023-02-24T03:55:30.974Z,82.70
2023-02-24T03:58:18.078Z,82.30
2023-02-24T04:00:56.191Z,81.90
2023-02-24T04:03:28.365Z,82.50
2023-02-24T04:05:58.066Z,81.50
2023-02-24T04:08:27.653Z,82.20
2023-02-24T04:11:16.152Z,83.50
2023-02-24T04:13:52.139Z,83.00
2023-02-24T04:16:29.690Z,83.20
2023-02-24T04:19:05.508Z,83.00
2023-02-24T04:21:33.564Z,82.30
2023-02-24T04:24:08.590Z,82.60
2023-02-24T04:26:40.465Z,83.30
2023-02-24T04:29:09.664Z,83.10
2023-02-24T04:31:39.023Z,82.90
2023-02-24T04:34:09.527Z,83.90
2023-02-24T04:36:38.316Z,84.20
2023-02-24T04:39:05.146Z,84.40
2023-02-24T04:41:31.839Z,84.60
2023-02-24T04:43:58.577Z,84.50
2023-02-24T04:46:25.429Z,85.00
2023-02-24T04:48:52.236Z,86.00
2023-02-24T04:51:21.073Z,86.30
2023-02-24T04:53:49.678Z,87.90
2023-02-24T04:56:18.630Z,88.80
2023-02-24T04:58:46.456Z,87.80
2023-02-24T05:01:13.393Z,87.30
2023-02-24T05:03:42.927Z,87.60
2023-02-24T05:06:17.280Z,87.10
2023-02-24T05:08:44.635Z,87.00
2023-02-24T05:11:19.098Z,85.60
2023-02-24T05:13:46.305Z,85.50
2023-02-24T05:16:15.724Z,85.90
2023-02-24T05:18:44.188Z,85.60
2023-02-24T05:21:31.834Z,85.60
2023-02-24T05:23:59.558Z,85.90
2023-02-24T05:26:27.028Z,86.10
2023-02-24T05:28:56.507Z,85.20
2023-02-24T05:31:26.628Z,85.30
2023-02-24T05:33:59.156Z,85.50
2023-02-24T05:36:28.180Z,84.50
2023-02-24T05:38:58.185Z,83.80
2023-02-24T05:41:32.523Z,83.70
2023-02-24T05:44:02.400Z,82.80
2023-02-24T05:46:32.591Z,82.70
2023-02-24T05:49:24.008Z,81.00
2023-02-24T05:51:55.579Z,81.20
2023-02-24T05:54:29.529Z,82.20
2023-02-24T05:57:01.412Z,82.80
2023-02-24T05:59:33.009Z,82.40
2023-02-24T06:02:07.039Z,83.50
2023-02-24T06:04:45.827Z,82.50
2023-02-24T06:07:35.411Z,82.10
2023-02-24T06:10:04.823Z,82.20
2023-02-24T06:12:39.870Z,81.70
2023-02-24T06:15:07.715Z,82.20
2023-02-24T06:17:35.027Z,82.00
2023-02-24T06:20:02.061Z,83.50
2023-02-24T06:22:29.185Z,83.40
2023-02-24T06:24:56.822Z,83.90
2023-02-24T06:27:25.016Z,85.10
2023-02-24T06:29:54.542Z,85.10
2023-02-24T06:32:24.662Z,86.80
2023-02-24T06:34:52.596Z,86.20
2023-02-24T06:37:19.684Z,86.00
2023-02-24T06:39:46.457Z,85.50
2023-02-24T06:42:13.699Z,85.70
2023-02-24T06:44:41.411Z,84.60
2023-02-24T06:47:10.969Z,84.60
2023-02-24T06:49:37.801Z,84.70
2023-02-24T06:52:04.973Z,84.50
2023-02-24T06:54:35.799Z,84.00
2023-02-24T06:57:03.465Z,83.80
2023-02-24T06:59:30.484Z,83.40
2023-02-24T07:01:59.540Z,82.90
2023-02-24T07:04:28.959Z,82.70
2023-02-24T07:06:58.338Z,82.70
2023-02-24T07:09:26.769Z,82.20
2023-02-24T07:11:56.059Z,82.50
2023-02-24T07:14:25.481Z,81.80
2023-02-24T07:16:54.519Z,81.70
2023-02-24T07:19:29.168Z,82.40
2023-02-24T07:22:02.193Z,82.00
2023-02-24T07:24:36.610Z,83.70
2023-02-24T07:27:10.644Z,84.50
2023-02-24T07:29:38.130Z,85.40
2023-02-24T07:32:08.718Z,86.40
2023-02-24T07:34:39.890Z,86.70
2023-02-24T07:37:08.480Z,86.90
2023-02-24T07:39:39.468Z,87.10
2023-02-24T07:42:08.280Z,88.50
2023-02-24T07:44:35.009Z,89.40
2023-02-24T07:47:07.600Z,89.60
2023-02-24T07:49:34.609Z,89.20
2023-02-24T07:52:01.962Z,89.70
2023-02-24T07:54:30.310Z,90.10
2023-02-24T07:56:59.343Z,90.00
2023-02-24T07:59:32.557Z,89.40
2023-02-24T08:02:00.613Z,90.00
2023-02-24T08:04:30.241Z,90.00
2023-02-24T08:06:59.133Z,90.00
2023-02-24T08:09:46.664Z,90.10
2023-02-24T08:12:18.307Z,90.10
2023-02-24T08:14:50.824Z,89.80
2023-02-24T08:17:23.294Z,88.80
2023-02-24T08:20:08.258Z,87.90
2023-02-24T08:22:37.394Z,87.70
2023-02-24T08:25:07.932Z,87.70
2023-02-24T08:27:40.328Z,86.40
2023-02-24T08:30:08.359Z,85.60
2023-02-24T08:32:43.785Z,86.40
2023-02-24T08:35:15.015Z,85.40
2023-02-24T08:37:53.604Z,83.90
2023-02-24T08:40:32.625Z,82.70
2023-02-24T08:43:17.224Z,82.40
2023-02-24T08:45:46.940Z,80.80
2023-02-24T08:48:18.447Z,80.70
2023-02-24T08:50:45.962Z,80.70
2023-02-24T08:53:19.265Z,79.30
2023-02-24T08:55:51.727Z,78.60
2023-02-24T08:58:19.878Z,78.60
2023-02-24T09:00:50.043Z,78.70
2023-02-24T09:03:28.005Z,78.70
2023-02-24T09:06:05.054Z,78.70
2023-02-24T09:08:38.490Z,79.40
2023-02-24T09:11:13.936Z,78.10
2023-02-24T09:13:51.814Z,78.00
2023-02-24T09:16:20.448Z,77.70
2023-02-24T09:19:07.473Z,79.40
2023-02-24T09:21:49.463Z,78.90
2023-02-24T09:24:27.032Z,77.90
2023-02-24T09:26:58.559Z,77.20
2023-02-24T09:29:34.536Z,75.70
2023-02-24T09:32:06.671Z,75.00
2023-02-24T09:34:47.271Z,74.00
2023-02-24T09:37:27.205Z,73.50
2023-02-24T09:39:57.204Z,72.60
2023-02-24T09:42:28.361Z,71.10
2023-02-24T09:44:59.916Z,70.50
2023-02-24T09:47:57.537Z,69.00
2023-02-24T09:51:02.537Z,67.70
2023-02-24T09:53:41.302Z,67.60
2023-02-24T09:56:08.204Z,66.30
2023-02-24T09:58:49.476Z,64.70
2023-02-24T10:01:48.012Z,64.80
2023-02-24T10:04:21.496Z,63.40
2023-02-24T10:07:11.519Z,62.60
2023-02-24T10:09:54.171Z,62.60
2023-02-24T10:12:34.142Z,62.00
2023-02-24T10:15:25.647Z,62.00
2023-02-24T10:17:56.260Z,61.40
2023-02-24T10:20:44.731Z,60.40
2023-02-24T10:23:35.623Z,60.40
2023-02-24T10:26:21.984Z,60.80
2023-02-24T10:28:59.796Z,60.90
2023-02-24T10:31:35.817Z,60.80
2023-02-24T10:34:12.318Z,60.20
2023-02-24T10:36:40.281Z,60.20
2023-02-24T10:39:16.010Z,59.70
2023-02-24T10:41:45.870Z,58.50
2023-02-24T10:44:20.623Z,58.10
2023-02-24T10:46:47.957Z,57.90
2023-02-24T10:49:16.967Z,57.30
2023-02-24T10:51:51.220Z,55.80
2023-02-24T10:54:55.925Z,55.70
2023-02-24T10:57:39.435Z,54.80
2023-02-24T11:00:32.728Z,55.50
2023-02-24T11:03:10.452Z,55.30
2023-02-24T11:06:05.535Z,53.90
2023-02-24T11:08:39.899Z,53.50
2023-02-24T11:11:20.536Z,51.20
2023-02-24T11:14:12.445Z,49.90
2023-02-24T11:17:04.040Z,49.70
2023-02-24T11:19:59.997Z,50.20
2023-02-24T11:22:35.285Z,50.10
2023-02-24T11:25:12.535Z,49.80
2023-02-24T11:27:42.107Z,50.20
2023-02-24T11:30:43.376Z,50.60
2023-02-24T11:33:53.481Z,50.50
2023-02-24T11:36:30.529Z,51.10
2023-02-24T11:39:26.520Z,50.80
2023-02-24T11:41:57.398Z,51.00
2023-02-24T11:44:28.325Z,50.60
2023-02-24T11:47:09.694Z,50.60
2023-02-24T11:50:05.374Z,50.60
2023-02-24T11:52:35.989Z,50.70
2023-02-24T11:55:07.593Z,50.90
2023-02-24T11:57:46.648Z,50.50
2023-02-24T12:00:20.348Z,50.20
2023-02-24T12:02:54.005Z,50.10
2023-02-24T12:05:27.312Z,50.80
2023-02-24T12:08:20.678Z,50.70
2023-02-24T12:10:58.401Z,51.00
2023-02-24T12:13:27.942Z,50.80
2023-02-24T12:16:04.935Z,50.90
2023-02-24T12:18:42.441Z,51.00
2023-02-24T12:21:23.648Z,50.70
2023-02-24T12:23:55.382Z,51.10
2023-02-24T12:26:27.297Z,51.20
2023-02-24T12:29:09.787Z,51.10
2023-02-24T12:31:37.574Z,51.70
2023-02-24T12:34:19.434Z,52.30
2023-02-24T12:37:18.380Z,51.90
2023-02-24T12:39:53.393Z,52.00
2023-02-24T12:42:29.047Z,52.30
2023-02-24T12:45:13.180Z,52.00
2023-02-24T12:48:13.969Z,52.00
2023-02-24T12:51:04.811Z,52.20
2023-02-24T12:53:51.833Z,51.90
2023-02-24T12:56:36.286Z,52.50
2023-02-24T12:59:06.621Z,52.90
2023-02-24T13:01:46.165Z,53.00
2023-02-24T13:04:12.954Z,53.20
2023-02-24T13:07:10.729Z,53.70
2023-02-24T13:09:49.897Z,53.70
2023-02-24T13:12:35.493Z,53.30
2023-02-24T13:15:05.798Z,53.20
2023-02-24T13:17:32.720Z,52.70
2023-02-24T13:20:11.349Z,52.30
2023-02-24T13:22:42.757Z,51.80
2023-02-24T13:25:09.430Z,52.10
2023-02-24T13:27:42.914Z,51.80
2023-02-24T13:30:14.338Z,51.60
2023-02-24T13:32:44.917Z,51.50
2023-02-24T13:35:18.023Z,51.70
2023-02-24T13:37:46.834Z,51.60
2023-02-24T13:40:26.642Z,51.60
2023-02-24T13:42:57.602Z,51.00
2023-02-24T13:45:32.693Z,51.50
2023-02-24T13:48:21.350Z,51.00
2023-02-24T13:51:30.301Z,50.30
2023-02-24T13:54:20.123Z,50.00
2023-02-24T13:57:04.191Z,49.80
2023-02-24T13:59:52.333Z,49.30
2023-02-24T14:02:25.268Z,49.50
2023-02-24T14:04:54.762Z,49.90
2023-02-24T14:07:28.746Z,50.40
2023-02-24T14:10:05.283Z,50.80
2023-02-24T14:12:35.408Z,51.40
2023-02-24T14:15:04.146Z,51.70
2023-02-24T14:17:34.478Z,52.00
2023-02-24T14:20:11.029Z,52.50
2023-02-24T14:22:50.026Z,53.10
2023-02-24T14:25:17.987Z,53.80
2023-02-24T14:27:48.436Z,53.60
2023-02-24T14:30:41.931Z,54.10
2023-02-24T14:33:23.641Z,53.90
2023-02-24T14:35:50.405Z,53.80
2023-02-24T14:38:29.413Z,53.70
2023-02-24T14:40:56.217Z,52.90
2023-02-24T14:43:23.318Z,52.90
2023-02-24T14:45:52.840Z,52.90
2023-02-24T14:48:37.588Z,52.90
2023-02-24T14:51:10.971Z,53.10
2023-02-24T14:53:51.405Z,53.10
2023-02-24T14:56:19.965Z,53.60
2023-02-24T14:59:00.500Z,54.00
2023-02-24T15:01:54.862Z,54.10
2023-02-24T15:04:43.814Z,54.80
2023-02-24T15:07:21.962Z,55.10
2023-02-24T15:09:51.632Z,54.80
2023-02-24T15:12:21.241Z,55.20
2023-02-24T15:14:53.395Z,55.60
2023-02-24T15:17:22.141Z,55.60
2023-02-24T15:19:54.451Z,55.90
2023-02-24T15:22:21.135Z,56.50
2023-02-24T15:24:48.311Z,56.70
2023-02-24T15:27:14.988Z,57.00
2023-02-24T15:29:56.322Z,57.10
2023-02-24T15:32:26.202Z,57.30
2023-02-24T15:34:53.171Z,57.30
2023-02-24T15:37:26.294Z,56.90
2023-02-24T15:40:02.772Z,56.70
2023-02-24T15:42:33.899Z,56.60
2023-02-24T15:45:33.205Z,56.20
2023-02-24T15:48:02.481Z,57.00
2023-02-24T15:50:30.782Z,56.70
2023-02-24T15:53:01.015Z,57.20
2023-02-24T15:55:28.920Z,57.30
2023-02-24T15:58:02.567Z,57.20
2023-02-24T16:00:31.112Z,57.60
2023-02-24T16:02:58.583Z,57.30
2023-02-24T16:05:26.359Z,57.50
2023-02-24T16:07:54.779Z,57.00
2023-02-24T16:10:24.573Z,57.00
2023-02-24T16:13:00.543Z,57.10
2023-02-24T16:15:31.026Z,57.30
2023-02-24T16:17:58.223Z,57.50
2023-02-24T16:20:31.362Z,58.80
2023-02-24T16:23:00.470Z,58.60
2023-02-24T16:25:29.149Z,59.40
2023-02-24T16:27:58.890Z,59.70
2023-02-24T16:30:30.333Z,59.80
2023-02-24T16:32:59.040Z,59.60
2023-02-24T16:35:27.592Z,60.20
2023-02-24T16:37:54.740Z,60.30
2023-02-24T16:40:30.974Z,61.50
2023-02-24T16:42:57.818Z,61.90
2023-02-24T16:45:29.403Z,62.10
2023-02-24T16:48:02.047Z,63.20
2023-02-24T16:50:33.624Z,63.70
2023-02-24T16:53:00.526Z,63.70
2023-02-24T16:55:27.677Z,64.00
2023-02-24T16:57:54.516Z,64.50
2023-02-24T17:00:24.272Z,65.00
2023-02-24T17:02:52.866Z,65.60
2023-02-24T17:05:27.765Z,67.10
2023-02-24T17:07:58.048Z,68.70
2023-02-24T17:10:25.456Z,69.50
2023-02-24T17:12:52.517Z,70.20
2023-02-24T17:15:23.942Z,70.70
2023-02-24T17:17:51.033Z,71.00
2023-02-24T17:20:20.092Z,71.20
2023-02-24T17:22:46.982Z,71.90
2023-02-24T17:25:25.579Z,71.30
2023-02-24T17:27:54.261Z,71.60
2023-02-24T17:30:23.833Z,71.40
2023-02-24T17:32:50.688Z,71.50
2023-02-24T17:35:18.073Z,71.90
2023-02-24T17:37:44.973Z,71.90
2023-02-24T17:40:12.376Z,72.30
2023-02-24T17:42:39.493Z,72.00
2023-02-24T17:45:07.551Z,72.00
2023-02-24T17:47:34.566Z,71.80
2023-02-24T17:50:02.246Z,71.70
2023-02-24T17:52:29.534Z,72.00
2023-02-24T17:54:56.519Z,71.90
2023-02-24T17:57:23.336Z,72.00
2023-02-24T17:59:50.205Z,71.90
2023-02-24T18:02:18.026Z,71.70
2023-02-24T18:04:44.893Z,71.10
2023-02-24T18:07:12.615Z,71.30
2023-02-24T18:09:39.476Z,71.10
2023-02-24T18:12:06.608Z,71.00
2023-02-24T18:14:33.360Z,70.70
2023-02-24T18:17:00.120Z,70.50
2023-02-24T18:19:26.932Z,70.30
2023-02-24T18:21:53.685Z,70.40
2023-02-24T18:24:22.769Z,70.40
2023-02-24T18:26:49.977Z,70.60
2023-02-24T18:29:16.778Z,70.70
2023-02-24T18:31:43.732Z,72.00
2023-02-24T18:34:10.565Z,73.80
2023-02-24T18:36:37.349Z,76.20
2023-02-24T18:39:04.904Z,78.40
2023-02-24T18:41:31.751Z,80.60
2023-02-24T18:43:59.318Z,82.30
2023-02-24T18:46:27.237Z,83.60
2023-02-24T18:48:56.468Z,85.00
2023-02-24T18:51:26.306Z,86.20
2023-02-24T18:53:53.806Z,85.90
2023-02-24T18:56:23.372Z,84.50
2023-02-24T18:58:52.739Z,84.30
2023-02-24T19:01:22.111Z,83.50
2023-02-24T19:03:50.158Z,83.50
2023-02-24T19:06:19.252Z,83.30
2023-02-24T19:08:46.708Z,82.30
2023-02-24T19:11:19.747Z,81.30
2023-02-24T19:13:47.788Z,81.90
2023-02-24T19:16:16.114Z,82.10
2023-02-24T19:18:43.412Z,82.10
2023-02-24T19:21:11.013Z,83.10
2023-02-24T19:23:38.809Z,84.20
2023-02-24T19:26:07.559Z,83.70
2023-02-24T19:28:34.304Z,83.50
2023-02-24T19:31:01.124Z,83.80
2023-02-24T19:33:27.906Z,83.90
2023-02-24T19:35:58.609Z,84.30
2023-02-24T19:38:25.370Z,83.10
2023-02-24T19:40:52.064Z,83.10
2023-02-24T19:43:18.781Z,82.80
2023-02-24T19:45:45.593Z,83.00
2023-02-24T19:48:12.349Z,81.90
2023-02-24T19:50:40.985Z,81.40
2023-02-24T19:53:08.289Z,81.70
2023-02-24T19:55:35.161Z,83.70
2023-02-24T19:58:02.006Z,83.60
2023-02-24T20:00:29.120Z,83.40
2023-02-24T20:02:56.155Z,83.20
2023-02-24T20:05:24.856Z,84.30
2023-02-24T20:07:51.593Z,85.00
2023-02-24T20:10:18.807Z,85.00
2023-02-24T20:12:45.577Z,84.40
2023-02-24T20:15:12.649Z,84.60
2023-02-24T20:17:39.618Z,81.40
2023-02-24T20:20:07.090Z,79.90
2023-02-24T20:22:33.907Z,76.00
2023-02-24T20:25:00.865Z,75.70
2023-02-24T20:27:27.657Z,74.50
2023-02-24T20:29:56.479Z,72.20
2023-02-24T20:32:23.772Z,72.00
2023-02-24T20:34:50.715Z,71.90
2023-02-24T20:37:17.679Z,69.30
2023-02-24T20:39:44.536Z,69.00
2023-02-24T20:42:12.336Z,67.60
2023-02-24T20:44:39.256Z,65.30
2023-02-24T20:47:06.086Z,64.80
2023-02-24T20:49:33.086Z,65.00
2023-02-24T20:51:59.841Z,65.10
2023-02-24T20:54:26.647Z,64.90
2023-02-24T20:56:53.540Z,63.60
2023-02-24T20:59:22.190Z,64.20
2023-02-24T21:01:49.444Z,63.60
2023-02-24T21:04:19.484Z,62.90
2023-02-24T21:06:47.910Z,62.10
2023-02-24T21:09:16.228Z,62.80
2023-02-24T21:11:43.180Z,63.50
2023-02-24T21:14:15.601Z,63.10
2023-02-24T21:16:42.455Z,63.70
2023-02-24T21:19:09.207Z,64.30
2023-02-24T21:21:35.911Z,64.20
2023-02-24T21:24:02.846Z,64.60
2023-02-24T21:26:29.653Z,65.00
2023-02-24T21:28:58.006Z,65.20
2023-02-24T21:31:27.723Z,65.70
2023-02-24T21:33:55.057Z,66.50
2023-02-24T21:36:25.669Z,67.50
2023-02-24T21:38:53.801Z,67.80
2023-02-24T21:41:21.340Z,68.40
2023-02-24T21:43:51.085Z,69.50
2023-02-24T21:46:18.141Z,69.40
2023-02-24T21:48:47.641Z,69.80
2023-02-24T21:51:14.486Z,68.70
2023-02-24T21:53:44.476Z,68.10
2023-02-24T21:56:16.557Z,69.20
2023-02-24T21:58:56.296Z,70.30
2023-02-24T22:01:30.801Z,70.00
2023-02-24T22:03:59.850Z,68.90
2023-02-24T22:06:31.034Z,69.80
2023-02-24T22:08:58.341Z,69.70
2023-02-24T22:11:25.257Z,69.60
2023-02-24T22:13:52.239Z,69.70
2023-02-24T22:16:22.152Z,71.50
2023-02-24T22:18:50.527Z,70.60
2023-02-24T22:21:20.697Z,71.00
2023-02-24T22:23:49.347Z,71.00
2023-02-24T22:26:17.475Z,71.10
2023-02-24T22:28:46.816Z,72.10
2023-02-24T22:31:16.428Z,72.50
2023-02-24T22:33:44.393Z,72.20
2023-02-24T22:36:14.237Z,73.10
2023-02-24T22:38:42.558Z,72.70
2023-02-24T22:41:13.107Z,72.90
2023-02-24T22:43:40.093Z,74.30
2023-02-24T22:46:10.765Z,76.90
2023-02-24T22:48:38.012Z,72.20
2023-02-24T22:51:06.653Z,70.20
2023-02-24T22:53:36.062Z,75.30
2023-02-24T22:56:03.206Z,78.10
2023-02-24T22:58:29.935Z,81.70
2023-02-24T23:00:56.849Z,83.40
2023-02-24T23:03:27.889Z,86.50
2023-02-24T23:06:03.774Z,88.10
2023-02-24T23:08:33.588Z,88.60
2023-02-24T23:11:16.272Z,90.00
2023-02-24T23:13:44.778Z,90.50
2023-02-24T23:16:15.218Z,90.70
2023-02-24T23:18:48.467Z,91.20
2023-02-24T23:21:16.128Z,91.40
2023-02-24T23:23:44.487Z,91.60
2023-02-24T23:26:14.144Z,91.50
2023-02-24T23:28:41.034Z,91.30
2023-02-24T23:31:07.947Z,91.40
2023-02-24T23:33:34.745Z,91.40
2023-02-24T23:36:08.073Z,91.90
2023-02-24T23:38:35.071Z,92.00
2023-02-24T23:41:06.715Z,92.00
2023-02-24T23:43:33.860Z,92.00
2023-02-24T23:46:04.397Z,92.00
2023-02-24T23:48:31.492Z,92.00
2023-02-24T23:50:58.235Z,91.70
2023-02-24T23:53:25.541Z,91.20
2023-02-24T23:55:53.388Z,91.30
2023-02-24T23:58:20.118Z,91.30
